Eastern Sierra Regional Airport
KBIH : rendu visible

Aérodrome :











RETROUVEZ-NOUS SUR...

 
LOGIN :

S'inscrire | Disclaimer

   EN    FR    IT 

 









Légende :    VFR   VFR Marginal   IFR   IFR Intensif   IFR Très Intensif
Visi : 
Plafond : 
>= 8 km
>= 3000ft
5 à 8 km
1000 à 3000 ft
1500m à 5 km
500 à 1000 ft
800 à 1500m
200 à 500 ft
< 800m
< 200 ft
Symboles :   Orages  Brouillard  Fortes neiges  Fortes précipitations  Vent > 20 kt






- Altitude de l'aérodrome : 4124 ft


KBIH - Eastern Sierra Regional

DERNIER METAR :
  • 081156Z AUTO 16006KT 10SM -RA BKN043 BKN060 OVC080 05/03 A2996 RMK AO2 SLP125 P0001 60004 70004 T00500033 10100 20044 56011

METARs EXPIRÉS :
  • 081111Z AUTO 15011KT 10SM -RA SCT005 BKN055 OVC070 06/04 A2997 RMK AO2 P0001 T00560044
  • 081056Z AUTO 16010KT 10SM -RA OVC055 06/04 A2998 RMK AO2 RAB53 SLP130 P0000 T00610044
  • 080956Z AUTO 00000KT 10SM OVC065 06/05 A2997 RMK AO2 RAE37 SLP126 P0000 T00610050

TAF KBIH
Valide du 08 à 12h jusqu'au 09 à 12h UTC


081150Z 0812/0912 15011KT P6SM -RA SCT005 BKN050 OVC070
FM082000 15020G30KT 5SM -RA BR BKN030 OVC050
FM090400 13011KT 5SM -RA BR BKN020
FM091000 17006KT P6SM -RA OVC020



MET'MAP, la Météo Aéronautique d'un coup d'oeil ! - Copyright ORBIFLY Décembre 2007 - Disclaimer

ORBIFLY MET'MAP TEAM :

Programmation & Développement : Alexandra Zaïnal
Sur une idée originale de : Baudouin d'Aumeries
Assistance à la programmation : Marc-Olivier Méhu
Soutien technique & logistique : Manuel Goepfert

Contact : metmap@orbifly.com




SOURCES & CREDITS :

   NOAA       Earth
Advisory